NCAR-RAP Real-Time Weather Data

Output produced by METARs form (12 August 2020  18:11 UTC)
found at http://weather.rap.ucar.edu/surface/
 
KSSI 121753Z AUTO 15011G17KT 10SM CLR 31/26 A3001 RMK AO2 SLP164 T03110256 10322 20244 56006
KSSI 121653Z AUTO VRB04KT 10SM CLR 31/23 A3001 RMK AO2 SLP164 T03110233
KSSI 121553Z AUTO 22006KT 10SM CLR 30/23 A3002 RMK AO2 SLP168 T03000233
KSSI 121453Z AUTO 24006KT 10SM CLR 29/24 A3003 RMK AO2 SLP170 T02890239 50000
KSSI 121353Z AUTO 28004KT 10SM CLR 27/23 A3003 RMK AO2 SLP170 T02720233 TSNO
KSSI 121253Z AUTO 28006KT 10SM CLR 26/23 A3004 RMK AO2 SLP172 T02560233 TSNO
KSSI 121153Z AUTO 23006KT 10SM CLR 24/24 A3003 RMK AO2 SLP170 T02440239 10244 20239 51017 TSNO
KSSI 121053Z AUTO 24005KT 10SM CLR 24/23 A3002 RMK AO2 SLP167 T02390233 TSNO
KSSI 120953Z AUTO 24004KT 10SM CLR 24/23 A3000 RMK AO2 SLP160 T02390228 TSNO
KSSI 120853Z AUTO 00000KT 10SM CLR 24/23 A2998 RMK AO2 SLP153 T02390228 55008
KSSI 120753Z AUTO 21003KT 10SM CLR 24/23 A2997 RMK AO2 SLP150 T02390228
KSSI 120653Z AUTO 25005KT 10SM CLR 24/23 A2999 RMK AO2 SLP155 T02390228
KSSI 120553Z AUTO 23005KT 10SM CLR 24/23 A3000 RMK AO2 SLP161 T02390228 10267 20239 56002
KSSI 120453Z AUTO 21005KT 10SM CLR 24/23 A3001 RMK AO2 SLP162 T02440233 403110239
KSSI 120353Z AUTO 22004KT 10SM CLR 25/23 A3000 RMK AO2 SLP160 T02500228
KSSI 120253Z AUTO 29006KT 10SM CLR 25/23 A3001 RMK AO2 SLP163 T02500228 53015
KSSI 120153Z AUTO 25009KT 10SM CLR 25/23 A3000 RMK AO2 SLP161 T02500233
KSSI 120053Z AUTO 24006KT 10SM CLR 26/24 A2997 RMK AO2 SLP149 T02610239
KSSI 112353Z AUTO 25005KT 10SM CLR 27/23 A2997 RMK AO2 SLP148 T02670233 10311 20267 53004
KSSI 112253Z AUTO 20009G17KT 10SM SCT020 29/26 A2996 RMK AO2 LTG DSNT SW-NW SLP145 T02890256
KSSI 112153Z AUTO 16011G16KT 10SM CLR 31/25 A2996 RMK AO2 LTG DSNT W SLP146 T03060250
KSSI 112053Z AUTO 12009KT 10SM CLR 31/25 A2995 RMK AO2 SLP144 T03060250 56020